Mission Woods, Kansas
Current Conditions -  °F | °C
As of 5:54 PM on Sunday 25 Jan 2015 (Local Time) from KMKC Reporting Station
Overcast Overcast  
Wind Chill: 33°   Ceiling: 2300
Heat Index: 40°   Visibility: 10mi
Dew Point: 31°   Wind: 13mph
Humidity: 70%   Direction: 350°N
Pressure: 30.06"   Gusts: NA
Location:  39.0312°N, 94.6315°W
Report Text: KMKC 252354Z 35011KT 10SM BKN023 OVC028 04/M01 A3006 RMK AO2 PK WND 01027/2326 SLP180 T00441006 10044 20039 53044
Loading
Personal Weather Stations






























Interactive Weather Map New forecast layout! Learn more

10-Day Weather Forecast

Advertisements
Track Severe Weather on mobile